Latest Weather Observations for Lucas Heights

IDN60801

Issued at 8:15 pm EDT Friday 30 January 2015 (issued every 30 minutes, with the page automatically refreshed every 10 minutes)

About weather observations | Map of weather stations | Latest weather observations for NSW | Other Formats
Station Details ID: 066023 Name: LUCAS HEIGHTS AWS Lat: -34.05 Lon: 150.98 Height: 140.0 m
Data from the previous 72 hours. | See also: Recent months for locations in New South Wales
Date/Time
EDT
Temp
°C
App
Temp
°C
Dew
Point
Rel
Hum
%
Delta-T
°C
Wind Press
QNH
hPa
Press
MSL
hPa
Rain
since 9 am
mm
Dir
 
Spd
km/h
Gust
km/h
Spd
kts
Gust
kts
30/08:00pm 19.7 17.4 14.2 70 3.2 SSE 19 28 10 15 1006.2 - 0.0
30/07:45pm 19.8 17.5 14.1 69 3.3 SSE 19 26 10 14 1006.1 - 0.0
30/07:30pm 20.1 18.1 13.9 67 3.6 SSE 17 24 9 13 1005.9 - 0.0
30/07:15pm 20.3 17.7 13.7 66 3.8 SSE 20 30 11 16 1005.8 - 0.0
30/07:00pm 21.2 18.7 13.4 61 4.5 SSE 19 30 10 16 1005.6 - 0.0
30/06:45pm 21.6 19.4 13.4 59 4.7 SSE 17 28 9 15 1005.4 - 0.0
30/06:30pm 21.0 18.6 12.8 59 4.7 SSE 17 26 9 14 1005.4 - 0.0
30/06:15pm 21.6 19.6 12.7 57 5.1 SSE 15 28 8 15 1005.3 - 0.0
30/06:00pm 22.0 20.3 12.4 54 5.5 SE 13 19 7 10 1005.1 - 0.0
30/05:45pm 22.3 20.1 12.2 52 5.7 SSE 15 24 8 13 1005.1 - 0.0
30/05:30pm 22.5 19.8 11.7 50 6.1 SSE 17 24 9 13 1005.0 - 0.0
30/05:15pm 23.7 21.6 11.2 45 7.0 SSE 13 22 7 12 1004.9 - 0.0
30/05:00pm 25.4 22.7 8.9 35 9.0 SSW 13 19 7 10 1004.8 - 0.0
30/04:45pm 24.4 21.4 7.9 35 8.8 SW 13 22 7 12 1004.9 - 0.0
30/04:30pm 24.6 20.8 7.4 33 9.1 WSW 17 32 9 17 1004.9 - 0.0
30/04:15pm 24.9 21.1 7.6 33 9.2 WSW 17 26 9 14 1005.0 - 0.0
30/04:00pm 25.6 21.5 7.7 32 9.6 WSW 19 33 10 18 1005.1 - 0.0
30/03:45pm 25.5 20.9 8.2 33 9.3 WSW 22 37 12 20 1005.1 - 0.0
30/03:30pm 25.2 21.0 8.4 34 9.1 SW 20 33 11 18 1005.3 - 0.0
30/03:15pm 24.6 20.0 8.2 35 8.8 SW 22 33 12 18 1005.4 - 0.0
30/03:00pm 24.5 19.1 8.1 35 8.8 SW 26 39 14 21 1005.5 - 0.0
30/02:45pm 23.9 19.3 8.2 36 8.4 WSW 22 37 12 20 1005.6 - 0.0
30/02:30pm 24.2 20.2 8.9 37 8.3 SSW 20 33 11 18 1005.9 - 0.0
30/02:15pm 23.7 19.2 8.6 38 8.1 SW 22 33 12 18 1006.2 - 0.0
30/02:00pm 23.5 18.1 8.2 37 8.2 SW 26 43 14 23 1006.5 - 0.0
30/01:45pm 23.1 18.5 8.1 38 8.0 SW 22 39 12 21 1006.6 - 0.0
30/01:30pm 23.3 19.5 9.1 40 7.7 SSW 19 32 10 17 1006.8 - 0.0
30/01:15pm 22.8 18.8 9.2 42 7.4 SW 20 32 11 17 1007.0 - 0.0
30/01:00pm 22.3 17.5 8.9 42 7.2 SW 24 35 13 19 1007.2 - 0.0
30/12:45pm 22.0 16.8 9.0 43 7.0 SSW 26 43 14 23 1007.4 - 0.0
30/12:30pm 21.8 16.7 9.2 44 6.8 SW 26 37 14 20 1007.5 - 0.0
30/12:15pm 21.9 17.6 9.3 44 6.8 SW 22 39 12 21 1007.6 - 0.0
30/12:00pm 21.8 17.1 9.1 44 6.8 SW 24 37 13 20 1007.7 - 0.0
30/11:45am 21.7 17.7 9.2 44 6.7 SW 20 37 11 20 1007.9 - 0.0
30/11:30am 21.3 17.4 9.3 46 6.4 SSW 20 33 11 18 1008.2 - 0.0
30/11:15am 21.0 17.1 9.4 47 6.2 SW 20 30 11 16 1008.4 - 0.0
30/11:00am 20.5 17.5 9.1 48 6.1 SW 15 22 8 12 1008.4 - 0.0
30/10:45am 20.4 17.4 9.4 49 5.9 SSW 15 28 8 15 1008.5 - 0.0
30/10:30am 20.0 17.5 9.7 51 5.5 SW 13 28 7 15 1008.7 - 0.0
30/10:15am 19.4 16.8 9.4 52 5.3 WSW 13 22 7 12 1008.9 - 0.0
30/10:00am 18.8 15.8 9.3 54 5.0 SW 15 22 8 12 1009.1 - 0.0
30/09:45am 18.4 15.3 9.0 54 4.9 SW 15 24 8 13 1009.1 - 0.0
30/09:30am 17.9 14.0 8.8 55 4.7 SW 19 24 10 13 1009.2 - 0.0
30/09:15am 17.7 15.1 9.2 57 4.5 SW 13 22 7 12 1009.4 - 0.0
30/09:00am 16.9 14.7 9.2 60 4.0 WSW 11 19 6 10 1009.5 - 0.0
30/08:45am 16.3 13.5 8.7 60 3.9 WSW 13 19 7 10 1009.4 - 0.0
30/08:30am 15.8 13.0 8.6 62 3.7 WSW 13 19 7 10 1009.4 - 0.0
30/08:15am 15.3 12.2 8.7 64 3.4 WSW 15 24 8 13 1009.4 - 0.0
30/08:00am 14.9 13.0 9.0 68 3.0 W 9 19 5 10 1009.3 - 0.0
30/07:45am 14.4 12.4 8.8 69 2.9 W 9 17 5 9 1009.3 - 0.0
30/07:30am 14.0 10.8 8.5 69 2.8 W 15 19 8 10 1009.2 - 0.0
30/07:15am 13.6 10.4 8.5 71 2.6 WSW 15 19 8 10 1009.2 - 0.0
30/07:00am 12.8 9.2 8.4 74 2.2 WSW 17 19 9 10 1009.0 - 0.0
30/06:45am 12.1 8.4 7.9 75 2.1 WSW 17 19 9 10 1009.0 - 0.0
30/06:30am 12.3 8.5 7.7 73 2.3 WSW 17 19 9 10 1008.9 - 0.0
30/06:15am 12.9 9.3 8.2 73 2.3 WSW 17 19 9 10 1008.8 - 0.0
30/06:00am 13.0 9.8 8.6 74 2.2 W 15 19 8 10 1008.8 - 0.0
30/05:45am 12.9 9.7 8.5 74 2.2 WSW 15 19 8 10 1008.8 - 0.0
30/05:30am 12.7 9.5 8.4 75 2.1 WSW 15 19 8 10 1008.7 - 0.0
30/05:15am 12.7 8.8 8.5 75 2.1 WSW 19 19 10 10 1008.6 - 0.0
30/05:00am 12.7 8.8 8.6 76 2.1 SW 19 20 10 11 1008.7 - 0.0
30/04:45am 12.7 8.8 8.7 76 2.0 WSW 19 19 10 10 1008.7 - 0.0
30/04:30am 12.9 9.5 9.0 77 2.0 SW 17 19 9 10 1008.8 - 0.0
30/04:15am 12.8 9.0 9.1 78 1.9 SW 19 20 10 11 1008.9 - 0.0
30/04:00am 12.8 9.0 9.1 78 1.9 SW 19 19 10 10 1009.0 - 0.0
30/03:45am 12.8 9.0 9.1 78 1.9 WSW 19 19 10 10 1009.1 - 0.0
30/03:30am 12.7 8.9 8.9 78 1.9 WSW 19 20 10 11 1009.2 - 0.0
30/03:15am 12.8 9.0 9.0 78 1.9 WSW 19 20 10 11 1009.4 - 0.0
30/03:00am 13.0 9.0 9.2 78 1.9 WSW 20 22 11 12 1009.5 - 0.0
30/02:45am 13.1 9.2 9.4 78 1.9 WSW 20 22 11 12 1009.5 - 0.0
30/02:30am 13.2 9.5 9.3 77 2.0 SW 19 20 10 11 1009.7 - 0.0
30/02:15am 13.5 9.8 9.3 76 2.2 SW 19 20 10 11 1009.9 - 0.0
30/02:00am 14.0 10.3 9.6 75 2.3 WSW 19 22 10 12 1010.1 - 0.0
30/01:45am 13.9 10.1 9.8 76 2.1 SW 20 22 11 12 1010.2 - 0.0
30/01:30am 13.9 10.1 9.9 77 2.1 SW 20 22 11 12 1010.4 - 0.0
30/01:15am 13.9 10.2 10.0 77 2.0 SW 20 22 11 12 1010.5 - 0.0
30/01:00am 14.0 10.3 10.2 78 2.0 WSW 20 22 11 12 1010.6 - 0.0
30/12:45am 14.1 10.4 10.3 78 2.0 SW 20 22 11 12 1010.8 - 0.0
30/12:30am 14.2 10.2 10.3 77 2.0 SW 22 24 12 13 1010.9 - 0.0
30/12:15am 14.5 10.5 10.3 76 2.2 WSW 22 24 12 13 1011.0 - 0.0
30/12:00am 14.9 10.9 10.5 75 2.3 WSW 22 24 12 13 1011.1 - 0.0
 
Date/Time
EDT
Temp
°C
App
Temp
°C
Dew
Point
Rel
Hum
%
Delta-T
°C
Wind Press
QNH
hPa
Press
MSL
hPa
Rain
since 9 am
mm
Dir
 
Spd
km/h
Gust
km/h
Spd
kts
Gust
kts
29/11:45pm 14.8 10.7 10.2 74 2.4 SW 22 26 12 14 1011.3 - 0.0
29/11:30pm 15.2 11.5 10.1 71 2.7 SW 20 22 11 12 1011.5 - 0.0
29/11:15pm 15.5 12.0 10.3 71 2.8 SW 19 26 10 14 1011.5 - 0.0
29/11:00pm 15.4 12.3 10.3 71 2.7 SSW 17 22 9 12 1011.6 - 0.0
29/10:45pm 15.7 13.0 10.2 70 2.9 SW 15 19 8 10 1011.7 - 0.0
29/10:30pm 16.1 13.4 10.4 69 3.0 SSW 15 20 8 11 1011.7 - 0.0
29/10:15pm 16.1 13.0 10.3 68 3.1 S 17 22 9 12 1011.7 - 0.0
29/10:00pm 16.3 13.6 10.4 68 3.1 S 15 22 8 12 1011.7 - 0.0
29/09:45pm 16.5 13.8 10.4 67 3.3 S 15 24 8 13 1011.6 - 0.0
29/09:30pm 16.8 13.2 10.7 67 3.3 S 20 32 11 17 1011.5 - 0.0
29/09:15pm 16.9 13.6 10.9 67 3.2 S 19 28 10 15 1011.5 - 0.0
29/09:00pm 17.3 14.1 11.1 67 3.4 S 19 28 10 15 1011.5 - 0.0
29/08:45pm 17.6 14.2 11.4 67 3.4 S 20 32 11 17 1011.4 - 0.0
29/08:30pm 17.7 14.6 11.6 67 3.4 S 19 33 10 18 1011.3 - 0.0
29/08:15pm 17.6 14.4 11.4 67 3.4 S 19 28 10 15 1011.0 - 0.0
29/08:00pm 17.9 14.2 11.4 65 3.6 S 22 39 12 21 1010.9 - 0.0
29/07:45pm 18.2 13.7 11.3 64 3.8 SSE 26 37 14 20 1010.7 - 0.0
29/07:30pm 18.6 14.0 11.1 61 4.1 S 26 43 14 23 1010.6 - 0.0
29/07:15pm 18.8 14.3 11.4 62 4.1 S 26 44 14 24 1010.5 - 0.0
29/07:00pm 19.1 14.2 11.2 60 4.3 S 28 44 15 24 1010.3 - 0.0
29/06:45pm 19.7 15.6 11.6 59 4.5 S 24 39 13 21 1010.1 - 0.0
29/06:30pm 19.9 15.4 11.4 58 4.7 S 26 37 14 20 1010.0 - 0.0
29/06:15pm 20.0 15.7 10.9 55 5.0 SSE 24 37 13 20 1010.0 - 0.0
29/06:00pm 20.1 14.6 10.6 54 5.2 SSE 30 43 16 23 1010.0 - 0.0
29/05:45pm 20.5 15.9 10.9 54 5.3 SSE 26 39 14 21 1010.0 - 0.0
29/05:30pm 20.5 15.5 11.1 54 5.2 SSE 28 41 15 22 1010.0 - 0.0
29/05:15pm 20.6 15.8 11.6 56 5.0 SSE 28 44 15 24 1010.1 - 0.0
29/05:00pm 20.6 15.0 11.4 55 5.1 SSE 32 43 17 23 1010.1 - 0.0
29/04:45pm 21.1 16.2 11.3 53 5.5 SSE 28 41 15 22 1010.1 - 0.0
29/04:30pm 21.6 16.6 11.1 51 5.8 SSE 28 48 15 26 1010.1 - 0.0
29/04:15pm 21.8 17.6 11.2 51 5.9 SSE 24 39 13 21 1010.2 - 0.0
29/04:00pm 21.4 17.7 11.6 53 5.5 SSE 22 33 12 18 1010.4 - 0.0
29/03:45pm 21.6 17.1 11.4 52 5.7 SSE 26 39 14 21 1010.5 - 0.0
29/03:30pm 22.0 18.1 10.9 49 6.2 SSE 22 37 12 20 1010.5 - 0.0
29/03:15pm 21.8 18.2 10.7 49 6.1 S 20 32 11 17 1010.6 - 0.0
29/03:00pm 20.9 17.4 10.9 52 5.5 S 20 32 11 17 1010.8 - 0.0
29/02:45pm 21.5 17.9 11.7 53 5.5 SSE 22 35 12 19 1011.0 - 0.0
29/02:30pm 20.9 16.6 10.8 52 5.6 S 24 37 13 20 1011.1 - 0.0
29/02:15pm 21.2 16.6 10.9 51 5.7 SSE 26 39 14 21 1011.2 - 0.0
29/02:00pm 22.0 18.2 9.9 46 6.6 S 20 33 11 18 1011.3 - 0.0
29/01:45pm 21.8 18.1 10.0 47 6.4 S 20 33 11 18 1011.4 - 0.0
29/01:30pm 21.1 17.4 9.6 47 6.2 S 19 33 10 18 1011.5 - 0.0
29/01:15pm 20.8 17.1 9.5 48 6.1 S 19 33 10 18 1011.7 - 0.0
29/01:00pm 20.7 16.4 9.4 48 6.1 SSW 22 32 12 17 1011.9 - 0.0
29/12:45pm 20.9 17.2 9.6 48 6.1 S 19 35 10 19 1011.9 - 0.0
29/12:30pm 21.0 16.8 9.8 48 6.1 S 22 37 12 20 1012.0 - 0.0
29/12:15pm 20.9 16.2 9.4 47 6.2 S 24 39 13 21 1012.0 - 0.0
29/12:00pm 20.8 16.1 9.3 47 6.2 SSW 24 39 13 21 1012.1 - 0.0
29/11:45am 20.7 15.7 9.4 48 6.1 S 26 43 14 23 1012.2 - 0.0
29/11:30am 20.4 16.1 9.4 49 5.9 S 22 43 12 23 1012.2 - 0.0
29/11:15am 20.4 16.1 9.4 49 5.9 SSW 22 33 12 18 1012.3 - 0.0
29/11:00am 20.0 14.8 9.0 49 5.8 S 26 43 14 23 1012.5 - 0.0
29/10:45am 19.7 13.8 9.2 50 5.6 S 30 44 16 24 1012.5 - 0.0
29/10:30am 19.5 14.5 9.4 52 5.4 SSW 26 41 14 22 1012.6 - 0.0
29/10:15am 19.4 14.8 9.6 53 5.2 S 24 44 13 24 1012.6 - 0.0
29/10:00am 19.0 15.3 9.6 54 5.0 S 19 32 10 17 1012.7 - 0.0
29/09:45am 18.6 14.3 9.4 55 4.9 S 22 32 12 17 1012.7 - 0.0
29/09:30am 18.3 14.0 9.2 55 4.8 S 22 35 12 19 1012.7 - 0.0
29/09:15am 18.2 14.1 10.0 58 4.4 S 22 37 12 20 1012.7 - 0.0
29/09:00am 17.9 14.1 9.9 59 4.3 S 20 32 11 17 1012.8 - 2.9
29/08:45am 17.6 14.0 9.9 60 4.1 S 19 32 10 17 1012.8 - 2.9
29/08:30am 17.0 13.3 9.6 61 3.9 SSW 19 32 10 17 1012.6 - 2.9
29/08:15am 16.5 12.7 9.1 61 3.8 SSW 19 28 10 15 1012.6 - 2.9
29/08:00am 16.2 11.8 8.9 62 3.8 SSW 22 33 12 18 1012.6 - 2.9
29/07:45am 16.1 12.1 9.0 63 3.7 SSW 20 32 11 17 1012.5 - 2.9
29/07:30am 16.0 12.4 9.8 66 3.3 SSW 19 30 10 16 1012.4 - 2.9
29/07:15am 15.3 12.1 9.8 69 2.9 SSW 17 32 9 17 1012.4 - 2.9
29/07:00am 15.0 11.5 10.2 73 2.5 SSW 19 33 10 18 1012.2 - 2.9
29/06:45am 14.5 10.8 10.2 75 2.3 SSW 20 32 11 17 1012.0 - 2.9
29/06:30am 14.3 11.2 10.2 76 2.1 SSW 17 24 9 13 1011.8 - 2.9
29/06:15am 14.3 10.6 10.3 77 2.1 SSW 20 35 11 19 1011.6 - 2.9
29/06:00am 14.2 10.6 10.4 78 2.0 SSW 20 37 11 20 1011.5 - 2.9
29/05:45am 14.2 10.6 10.4 78 2.0 SSW 20 33 11 18 1011.5 - 2.9
29/05:30am 14.3 10.9 10.5 78 2.0 SW 19 24 10 13 1011.4 - 2.9
29/05:15am 14.5 10.9 10.6 77 2.1 SW 20 26 11 14 1011.4 - 2.9
29/05:00am 14.6 11.6 10.8 78 2.0 SSW 17 24 9 13 1011.3 - 2.9
29/04:45am 14.5 11.2 11.0 79 1.9 SSW 19 28 10 15 1011.4 - 2.9
29/04:30am 13.9 10.6 10.9 82 1.6 SSW 19 28 10 15 1011.6 - 2.9
29/04:15am 13.7 10.7 10.5 81 1.7 SW 17 24 9 13 1011.7 - 2.9
29/04:00am 14.4 11.5 11.0 80 1.8 SSW 17 24 9 13 1011.9 - 2.9
29/03:45am 14.5 12.0 11.1 80 1.8 SSW 15 22 8 12 1012.0 - 2.9
29/03:30am 14.9 12.5 11.5 80 1.8 SSW 15 20 8 11 1012.0 - 2.9
29/03:15am 14.9 12.2 11.6 80 1.8 SSW 17 28 9 15 1012.0 - 2.9
29/03:00am 14.9 12.2 11.6 80 1.8 SSW 17 24 9 13 1012.1 - 2.9
29/02:45am 14.9 12.6 11.6 80 1.8 SSW 15 24 8 13 1012.2 - 2.9
29/02:30am 15.0 13.0 11.6 80 1.8 SSW 13 19 7 10 1012.3 - 2.9
29/02:15am 15.1 12.8 11.7 80 1.8 SSW 15 24 8 13 1012.5 - 2.9
29/02:00am 15.1 12.4 11.6 79 1.9 SSW 17 24 9 13 1012.8 - 2.9
29/01:45am 15.4 12.8 12.0 80 1.9 SSW 17 30 9 16 1013.0 - 2.9
29/01:30am 14.8 12.0 11.4 80 1.8 S 17 32 9 17 1013.2 - 2.9
29/01:15am 14.8 12.3 11.0 78 2.0 SW 15 19 8 10 1013.2 - 2.9
29/01:00am 15.3 12.8 11.2 76 2.2 SW 15 20 8 11 1013.2 - 2.9
29/12:45am 15.9 12.8 11.6 75 2.3 SW 19 24 10 13 1013.1 - 2.9
29/12:30am 16.0 13.0 11.8 76 2.3 SSW 19 28 10 15 1013.1 - 2.9
29/12:15am 16.1 13.1 11.9 76 2.3 SSW 19 32 10 17 1013.2 - 2.9
29/12:00am 16.2 13.0 11.9 75 2.4 S 20 30 11 16 1013.3 - 2.9
 
Date/Time
EDT
Temp
°C
App
Temp
°C
Dew
Point
Rel
Hum
%
Delta-T
°C
Wind Press
QNH
hPa
Press
MSL
hPa
Rain
since 9 am
mm
Dir
 
Spd
km/h
Gust
km/h
Spd
kts
Gust
kts
28/11:45pm 16.3 13.1 12.0 75 2.4 S 20 33 11 18 1013.3 - 2.9
28/11:30pm 16.4 12.9 12.1 76 2.4 S 22 32 12 17 1013.4 - 2.9
28/11:15pm 16.4 13.5 12.2 76 2.3 SSW 19 28 10 15 1013.5 - 2.9
28/11:00pm 16.5 14.0 12.2 76 2.4 SSW 17 28 9 15 1013.7 - 2.9
28/10:45pm 16.7 13.8 12.3 75 2.4 SSW 19 28 10 15 1013.9 - 2.9
28/10:30pm 16.6 13.7 12.3 76 2.4 SSW 19 28 10 15 1013.9 - 2.9
28/10:15pm 16.7 13.8 12.3 75 2.4 SSW 19 32 10 17 1013.8 - 2.9
28/10:00pm 16.7 14.2 12.3 75 2.4 SSW 17 28 9 15 1013.7 - 2.9
28/09:45pm 16.8 13.9 12.4 75 2.4 SSW 19 32 10 17 1013.7 - 2.9
28/09:30pm 16.9 14.4 12.3 74 2.5 SSW 17 24 9 13 1013.7 - 2.9
28/09:15pm 17.0 14.1 12.4 74 2.6 SSW 19 28 10 15 1013.8 - 2.9
28/09:00pm 16.9 14.0 12.4 75 2.5 S 19 33 10 18 1013.8 - 2.9
28/08:45pm 17.1 15.0 12.5 74 2.6 S 15 22 8 12 1013.7 - 2.9
28/08:30pm 17.5 14.7 12.7 73 2.7 S 19 28 10 15 1013.7 - 2.9
28/08:15pm 17.8 14.2 12.9 73 2.8 S 24 41 13 22 1013.6 - 2.9
28/08:00pm 17.9 15.2 12.9 72 2.8 S 19 28 10 15 1013.5 - 2.9
28/07:45pm 18.2 15.3 13.0 71 2.9 S 20 33 11 18 1013.3 - 2.9
28/07:30pm 18.4 15.8 13.2 71 3.0 S 19 37 10 20 1013.2 - 2.9
28/07:15pm 18.6 15.8 13.3 71 3.0 S 20 35 11 19 1013.1 - 2.9
28/07:00pm 19.1 16.6 13.4 69 3.3 S 19 33 10 18 1012.9 - 2.9
28/06:45pm 19.5 17.1 13.8 69 3.3 S 19 32 10 17 1012.9 - 2.9
28/06:30pm 19.6 17.0 13.9 69 3.3 S 20 33 11 18 1013.0 - 2.9
28/06:15pm 19.4 17.2 14.8 75 2.7 S 20 33 11 18 1013.0 - 2.9
28/06:00pm 18.6 15.8 14.4 76 2.4 S 22 41 12 22 1013.0 - 2.9
28/05:45pm 18.7 16.5 14.5 76 2.4 S 19 30 10 16 1013.1 - 2.9
28/05:30pm 18.8 15.7 14.5 76 2.5 SSE 24 39 13 21 1013.1 - 2.9
28/05:15pm 19.0 17.7 15.9 82 1.9 SSE 17 50 9 27 1013.0 - 2.9
28/05:00pm 17.9 17.1 15.2 84 1.6 SSE 13 22 7 12 1013.1 - 2.9
28/04:45pm 17.4 13.8 14.2 81 1.8 SSE 26 39 14 21 1013.3 - 2.9
28/04:30pm 17.5 14.7 14.2 81 1.9 SSE 22 33 12 18 1013.2 - 2.9
28/04:15pm 17.3 14.3 13.6 79 2.1 SSE 22 33 12 18 1013.4 - 2.9
28/04:00pm 19.4 14.9 13.9 70 3.2 SSE 30 50 16 27 1013.2 - 2.9
28/03:45pm 19.7 16.7 13.6 68 3.5 SSE 22 37 12 20 1013.0 - 2.9
28/03:30pm 19.7 16.5 14.3 71 3.1 S 24 39 13 21 1013.0 - 2.9
28/03:15pm 18.7 16.2 14.2 75 2.6 S 20 35 11 19 1013.3 - 2.9
28/03:00pm 19.3 16.4 15.2 77 2.4 S 24 48 13 26 1013.4 - 2.9
28/02:45pm 18.5 17.0 15.4 82 1.8 S 17 28 9 15 1013.5 - 2.9
28/02:30pm 17.7 15.5 14.5 81 1.9 SSE 19 33 10 18 1013.8 - 2.9
28/02:15pm 18.4 14.8 14.3 77 2.4 SSE 26 43 14 23 1013.8 - 2.9
28/02:00pm 19.0 17.0 15.6 80 2.0 S 20 37 11 20 1013.8 - 2.7
28/01:45pm 17.7 15.6 14.6 82 1.8 SSE 19 32 10 17 1014.0 - 2.7
28/01:30pm 18.4 16.3 15.2 81 1.9 S 20 33 11 18 1014.2 - 2.7
28/01:15pm 18.3 17.7 15.6 84 1.6 S 13 22 7 12 1014.0 - 2.7
28/01:00pm 17.8 16.4 15.5 86 1.4 SSE 17 30 9 16 1013.9 - 2.7
28/12:45pm 17.7 15.7 15.6 87 1.2 S 20 35 11 19 1014.1 - 2.7
28/12:30pm 17.8 17.0 16.0 89 1.1 S 15 26 8 14 1014.1 - 2.7
28/12:15pm 17.4 15.7 15.7 90 1.0 SSE 19 32 10 17 1014.1 - 2.7
28/12:00pm 16.7 15.9 15.2 91 0.9 SSE 13 22 7 12 1014.1 - 2.7
28/11:45am 16.2 14.1 14.7 91 0.9 SSE 19 39 10 21 1014.3 - 2.7
28/11:30am 16.5 13.6 15.1 91 0.8 SSE 24 39 13 21 1014.4 - 2.7
28/11:15am 16.8 15.7 15.4 91 0.8 SSE 15 28 8 15 1014.1 - 2.7
28/11:00am 16.9 15.9 15.5 91 0.8 S 15 22 8 12 1014.2 - 2.2
28/10:45am 16.9 16.3 15.6 92 0.8 S 13 20 7 11 1014.1 - 1.8
28/10:30am 16.9 14.9 15.6 92 0.8 SSE 20 33 11 18 1014.0 - 1.8
28/10:15am 16.7 15.3 15.5 93 0.7 SSE 17 30 9 16 1013.9 - 1.8
28/10:00am 16.5 15.8 15.3 93 0.7 S 13 22 7 12 1013.9 - 1.8
28/09:45am 16.3 15.1 15.1 93 0.7 SSE 15 26 8 14 1013.9 - 1.8
28/09:30am 16.3 14.3 15.0 92 0.8 S 19 28 10 15 1013.7 - 1.6
28/09:15am 16.3 15.5 15.0 92 0.8 SSE 13 22 7 12 1013.5 - 0.7
28/09:00am 16.3 14.7 15.0 92 0.8 SSE 17 32 9 17 1013.5 - 74.7
28/08:45am 16.3 14.7 15.0 92 0.8 SSE 17 37 9 20 1013.3 - 74.3
28/08:30am 16.4 16.4 15.1 92 0.8 SSE 9 19 5 10 1013.1 - 72.7
28/08:15am 16.3 15.8 15.0 92 0.8 SE 11 20 6 11 1013.0 - 70.7
28/08:00am 16.3 14.7 14.9 91 0.8 SE 17 28 9 15 1012.9 - 67.0
28/07:45am 16.1 14.4 14.7 91 0.8 ESE 17 35 9 19 1012.6 - 63.7
28/07:30am 15.9 14.5 14.4 91 0.9 S 15 28 8 15 1012.2 - 60.8
28/07:15am 15.8 13.9 14.3 91 0.9 S 17 24 9 13 1012.1 - 60.7
28/07:00am 15.9 13.4 14.2 90 1.0 S 20 33 11 18 1012.0 - 59.2
28/06:45am 16.2 12.7 14.5 90 1.0 S 26 39 14 21 1011.7 - 58.5
28/06:30am 16.4 12.6 14.8 90 0.9 S 28 44 15 24 1011.5 - 58.1
28/06:15am 16.5 13.9 14.9 90 0.9 S 22 43 12 23 1011.5 - 58.1
28/06:00am 16.4 13.8 14.9 91 0.9 S 22 33 12 18 1011.4 - 58.1
28/05:45am 16.4 14.4 15.0 91 0.8 S 19 28 10 15 1011.3 - 58.1
28/05:30am 16.3 14.7 15.0 92 0.8 S 17 24 9 13 1011.2 - 58.1
28/05:15am 16.4 15.6 15.0 91 0.8 S 13 24 7 13 1011.3 - 58.1
28/05:00am 16.4 16.4 15.1 92 0.8 S 9 17 5 9 1011.3 - 58.1
28/04:45am 16.5 16.5 15.1 91 0.8 S 9 13 5 7 1011.3 - 58.1
28/04:30am 16.5 15.7 15.2 92 0.8 S 13 17 7 9 1011.4 - 58.1
28/04:15am 16.5 15.4 15.2 92 0.8 SSE 15 20 8 11 1011.3 - 58.1
28/04:00am 16.5 14.6 15.3 93 0.7 SSE 19 26 10 14 1011.3 - 58.1
28/03:45am 16.5 14.6 15.3 93 0.7 S 19 30 10 16 1011.4 - 58.1
28/03:30am 16.5 15.0 15.3 93 0.7 S 17 22 9 12 1011.5 - 58.1
28/03:15am 16.5 15.0 15.3 93 0.7 S 17 24 9 13 1011.6 - 58.1
28/03:00am 16.5 14.4 15.3 93 0.7 SSE 20 30 11 16 1011.6 - 58.1
28/02:45am 16.5 14.1 15.4 93 0.6 SSE 22 32 12 17 1011.7 - 58.1
28/02:30am 16.5 14.1 15.3 93 0.7 SSE 22 33 12 18 1011.9 - 58.1
28/02:15am 16.4 14.9 15.2 93 0.7 SSE 17 28 9 15 1012.0 - 58.1
28/02:00am 16.4 14.9 15.2 93 0.7 SSE 17 22 9 12 1012.1 - 58.0
28/01:45am 16.5 15.0 15.3 93 0.7 SSE 17 24 9 13 1012.3 - 58.0
28/01:30am 16.6 15.9 15.5 93 0.6 SSE 13 20 7 11 1012.5 - 58.0
28/01:15am 16.7 14.9 15.4 92 0.8 SSE 19 28 10 15 1012.6 - 57.8
28/01:00am 17.0 14.7 15.8 93 0.7 SE 22 32 12 17 1012.7 - 57.1
28/12:45am 17.1 14.1 15.9 93 0.7 SE 26 39 14 21 1012.7 - 56.2
28/12:30am 17.2 15.6 16.0 93 0.7 SE 19 33 10 18 1012.7 - 54.7
28/12:15am 17.0 15.7 15.8 93 0.7 S 17 24 9 13 1012.6 - 53.6
28/12:00am 16.9 15.9 15.7 93 0.7 S 15 19 8 10 1012.8 - 53.3
 
Date/Time
EDT
Temp
°C
App
Temp
°C
Dew
Point
Rel
Hum
%
Delta-T
°C
Wind Press
QNH
hPa
Press
MSL
hPa
Rain
since 9 am
mm
Dir
 
Spd
km/h
Gust
km/h
Spd
kts
Gust
kts
27/11:45pm 16.9 16.3 15.7 93 0.7 S 13 17 7 9 1013.1 - 53.3
27/11:30pm 17.0 16.8 15.7 92 0.8 S 11 17 6 9 1013.1 - 53.3
27/11:15pm 17.0 16.8 15.8 93 0.7 SSE 11 15 6 8 1013.1 - 53.1
27/11:00pm 17.1 16.9 15.8 92 0.8 SSE 11 19 6 10 1013.1 - 52.7
27/10:45pm 17.1 16.6 15.9 93 0.7 SE 13 19 7 10 1013.2 - 51.3
27/10:30pm 17.0 17.2 15.8 93 0.7 ESE 9 17 5 9 1013.3 - 48.6
27/10:15pm 17.1 17.9 15.8 92 0.8 ESE 6 13 3 7 1013.2 - 43.6
27/10:00pm 17.0 17.6 15.7 92 0.8 SE 7 9 4 5 1013.1 - 41.0
27/09:45pm 17.1 17.3 15.8 92 0.8 ESE 9 17 5 9 1012.8 - 40.5
27/09:30pm 17.2 17.5 15.9 92 0.8 E 9 17 5 9 1012.7 - 39.4
27/09:15pm 17.3 17.6 15.9 91 0.8 E 9 17 5 9 1012.8 - 39.2
27/09:00pm 17.2 17.8 15.8 91 0.8 E 7 13 4 7 1012.9 - 39.1
27/08:45pm 17.3 16.8 15.9 91 0.8 ESE 13 22 7 12 1013.0 - 38.0
27/08:30pm 17.4 16.9 16.0 91 0.8 SE 13 20 7 11 1012.8 - 33.3
27/08:15pm 17.6 17.9 16.1 91 0.9 S 9 17 5 9 1012.4 - 30.6

Other Formats:

Comma delimited format used in spreadsheet applications
http://www.bom.gov.au/fwo/IDN60801/IDN60801.95757.axf

JavaScript Object Notation format (JSON) in row-major order
http://www.bom.gov.au/fwo/IDN60801/IDN60801.95757.json